Terminal Aerodrome Forecast
Issued by NWS

Home | Current Version | Previous Version | Text Only | Print | Product List | Glossary On
Versions: 1 2 3 4 5 6 7 8 9 10 11 12 13
000
FTUS42 KTAE 231131
TAFABY
TAF
KABY 231131Z 2312/2412 21006KT P6SM SCT015
     FM231800 23010G20KT 3SM TSRA BKN025CB
     FM232100 27010G20KT P6SM BKN030
     FM240000 27005KT P6SM BKN040=

USA.gov is the U.S. government's official web portal to all federal, state and local government web resources and services.